Terminal Aerodrome Forecast
Issued by NWS

Home | Current Version | Previous Version | Text Only | Print | Product List | Glossary On
Versions: 1 2 3 4 5 6 7 8 9 10 11 12 13 14
925
FTUS45 KVEF 221722
TAFVGT
TAF
KVGT 221722Z 2218/2318 VRB06KT P6SM SKC
     FM221900 11005KT P6SM SKC
     FM230200 33008KT P6SM SKC=

USA.gov is the U.S. government's official web portal to all federal, state and local government web resources and services.